createdAt,value
2023-07-16T00:00:55.548Z,0.00
2023-07-16T00:01:55.562Z,0.00
2023-07-16T00:02:55.579Z,0.00
2023-07-16T00:03:55.525Z,0.00
2023-07-16T00:04:55.504Z,0.00
2023-07-16T00:05:55.478Z,0.00
2023-07-16T00:06:55.488Z,0.00
2023-07-16T00:07:55.476Z,0.00
2023-07-16T00:08:55.441Z,0.00
2023-07-16T00:09:55.429Z,0.00
2023-07-16T00:10:55.405Z,0.00
2023-07-16T00:11:55.480Z,0.00
2023-07-16T00:12:54.908Z,0.00
2023-07-16T00:13:55.405Z,0.00
2023-07-16T00:14:55.375Z,0.00
2023-07-16T00:15:55.403Z,0.00
2023-07-16T00:16:55.412Z,0.00
2023-07-16T00:17:55.461Z,0.00
2023-07-16T00:18:55.292Z,0.00
2023-07-16T00:19:55.295Z,0.00
2023-07-16T00:20:55.284Z,0.00
2023-07-16T00:21:55.283Z,0.00
2023-07-16T00:22:55.312Z,0.00
2023-07-16T00:23:55.225Z,0.00
2023-07-16T00:24:55.230Z,0.00
2023-07-16T00:25:55.213Z,0.00
2023-07-16T00:26:55.202Z,0.00
2023-07-16T00:27:55.197Z,0.00
2023-07-16T00:28:55.160Z,0.00
2023-07-16T00:29:55.168Z,0.00
2023-07-16T00:30:55.192Z,0.00
2023-07-16T00:31:55.135Z,0.00
2023-07-16T00:32:55.162Z,0.00
2023-07-16T00:33:55.107Z,0.00
2023-07-16T00:34:55.089Z,0.00
2023-07-16T00:35:55.061Z,0.00
2023-07-16T00:36:55.052Z,0.00
2023-07-16T00:37:55.068Z,0.00
2023-07-16T00:38:55.039Z,0.00
2023-07-16T00:39:54.999Z,0.00
2023-07-16T00:40:54.992Z,0.00
2023-07-16T00:41:54.970Z,0.00
2023-07-16T00:42:53.911Z,0.00
2023-07-16T00:43:54.950Z,0.00
2023-07-16T00:44:54.944Z,0.00
2023-07-16T00:45:54.926Z,0.00
2023-07-16T00:46:54.999Z,0.00
2023-07-16T00:47:54.904Z,0.00
2023-07-16T00:48:54.880Z,0.00
2023-07-16T00:49:54.882Z,0.00
2023-07-16T00:50:54.855Z,0.00
2023-07-16T00:51:54.827Z,0.00
2023-07-16T00:52:54.839Z,0.00
2023-07-16T00:53:54.820Z,0.00
2023-07-16T00:54:53.272Z,0.00
2023-07-16T00:55:54.789Z,0.00
2023-07-16T00:56:54.784Z,0.00
2023-07-16T00:57:54.826Z,0.00
2023-07-16T00:58:54.737Z,0.00
2023-07-16T00:59:54.739Z,0.00
2023-07-16T01:00:54.727Z,0.00
2023-07-16T01:01:54.749Z,0.00
2023-07-16T01:02:54.739Z,0.00
2023-07-16T01:03:54.660Z,0.00
2023-07-16T01:04:54.759Z,0.00
2023-07-16T01:05:53.202Z,0.00
2023-07-16T01:06:54.657Z,0.00
2023-07-16T01:07:54.606Z,0.00
2023-07-16T01:08:54.599Z,0.00
2023-07-16T01:09:54.611Z,0.00
2023-07-16T01:10:54.583Z,0.00
2023-07-16T01:11:54.554Z,0.00
2023-07-16T01:12:54.613Z,0.00
2023-07-16T01:13:54.559Z,0.00
2023-07-16T01:14:54.541Z,0.00
2023-07-16T01:15:54.562Z,0.00
2023-07-16T01:16:54.623Z,0.00
2023-07-16T01:17:54.587Z,0.00
2023-07-16T01:18:54.480Z,0.00
2023-07-16T01:19:54.447Z,0.00
2023-07-16T01:20:54.427Z,0.00
2023-07-16T01:21:54.427Z,0.00
2023-07-16T01:22:54.444Z,0.00
2023-07-16T01:23:54.394Z,0.00
2023-07-16T01:24:53.880Z,0.00
2023-07-16T01:25:54.369Z,0.00
2023-07-16T01:26:54.390Z,0.00
2023-07-16T01:27:54.342Z,0.00
2023-07-16T01:28:54.337Z,0.00
2023-07-16T01:29:54.298Z,0.00
2023-07-16T01:30:54.288Z,0.00
2023-07-16T01:31:54.363Z,0.00
2023-07-16T01:32:54.332Z,0.00
2023-07-16T01:33:54.290Z,0.00
2023-07-16T01:34:54.262Z,0.00
2023-07-16T01:35:54.213Z,0.00
2023-07-16T01:36:54.219Z,0.00
2023-07-16T01:37:54.195Z,0.00
2023-07-16T01:38:54.179Z,0.00
2023-07-16T01:39:54.178Z,0.00
2023-07-16T01:40:54.179Z,0.00
2023-07-16T01:41:54.123Z,0.00
2023-07-16T01:42:54.133Z,0.00
2023-07-16T01:43:54.107Z,0.00
2023-07-16T01:44:54.097Z,0.00
2023-07-16T01:45:54.135Z,0.00
2023-07-16T01:46:54.071Z,0.00
2023-07-16T01:47:54.108Z,0.00
2023-07-16T01:48:54.044Z,0.00
2023-07-16T01:49:54.023Z,0.00
2023-07-16T01:50:54.020Z,0.00
2023-07-16T01:51:54.008Z,0.00
2023-07-16T01:52:54.001Z,0.00
2023-07-16T01:53:53.972Z,0.00
2023-07-16T01:54:53.951Z,0.00
2023-07-16T01:55:53.946Z,0.00
2023-07-16T01:56:53.950Z,0.00
2023-07-16T01:57:53.914Z,0.00
2023-07-16T01:58:53.904Z,0.00
2023-07-16T01:59:53.887Z,0.00
2023-07-16T02:00:53.893Z,0.00
2023-07-16T02:01:53.935Z,0.00
2023-07-16T02:02:53.894Z,0.00
2023-07-16T02:03:53.893Z,0.00
2023-07-16T02:04:53.819Z,0.00
2023-07-16T02:05:53.798Z,0.00
2023-07-16T02:06:53.797Z,0.00
2023-07-16T02:07:51.809Z,0.00
2023-07-16T02:08:53.929Z,0.00
2023-07-16T02:09:53.740Z,0.00
2023-07-16T02:10:53.726Z,0.00
2023-07-16T02:11:53.724Z,0.00
2023-07-16T02:12:53.700Z,0.00
2023-07-16T02:13:53.685Z,0.00
2023-07-16T02:14:53.683Z,0.00
2023-07-16T02:15:52.095Z,0.00
2023-07-16T02:16:53.665Z,0.00
2023-07-16T02:17:53.673Z,0.00
2023-07-16T02:18:53.629Z,0.00
2023-07-16T02:19:53.609Z,0.00
2023-07-16T02:20:53.617Z,0.00
2023-07-16T02:21:53.583Z,0.00
2023-07-16T02:22:53.589Z,0.00
2023-07-16T02:23:53.560Z,0.00
2023-07-16T02:24:53.530Z,0.00
2023-07-16T02:25:53.547Z,0.00
2023-07-16T02:26:53.535Z,0.00
2023-07-16T02:27:53.494Z,0.00
2023-07-16T02:28:53.492Z,0.00
2023-07-16T02:29:53.474Z,0.00
2023-07-16T02:30:53.475Z,0.00
2023-07-16T02:31:53.478Z,0.00
2023-07-16T02:32:53.470Z,0.00
2023-07-16T02:33:53.427Z,0.00
2023-07-16T02:34:53.406Z,0.00
2023-07-16T02:35:53.400Z,0.00
2023-07-16T02:36:53.401Z,0.00
2023-07-16T02:37:53.371Z,0.00
2023-07-16T02:38:53.367Z,0.00
2023-07-16T02:39:53.357Z,0.00
2023-07-16T02:40:53.316Z,0.00
2023-07-16T02:41:53.353Z,0.00
2023-07-16T02:42:53.299Z,0.00
2023-07-16T02:43:53.267Z,0.00
2023-07-16T02:44:53.268Z,0.00
2023-07-16T02:45:53.258Z,0.00
2023-07-16T02:46:53.299Z,0.00
2023-07-16T02:47:53.299Z,0.00
2023-07-16T02:48:53.225Z,0.00
2023-07-16T02:49:53.214Z,0.00
2023-07-16T02:50:53.191Z,0.00
2023-07-16T02:51:53.167Z,0.00
2023-07-16T02:52:53.155Z,0.00
2023-07-16T02:53:53.161Z,0.00
2023-07-16T02:54:53.128Z,0.00
2023-07-16T02:55:53.121Z,0.00
2023-07-16T02:56:53.101Z,0.00
2023-07-16T02:57:53.075Z,0.00
2023-07-16T02:58:53.080Z,0.00
2023-07-16T02:59:53.065Z,0.00
2023-07-16T03:00:53.049Z,0.00
2023-07-16T03:01:53.040Z,0.00
2023-07-16T03:02:53.080Z,0.00
2023-07-16T03:03:53.008Z,0.00
2023-07-16T03:04:52.970Z,0.00
2023-07-16T03:05:52.975Z,0.00
2023-07-16T03:06:52.949Z,0.00
2023-07-16T03:07:52.942Z,0.00
2023-07-16T03:08:52.935Z,0.00
2023-07-16T03:09:52.910Z,0.00
2023-07-16T03:10:52.812Z,0.00
2023-07-16T03:11:52.883Z,0.00
2023-07-16T03:12:52.875Z,0.00
2023-07-16T03:13:52.864Z,0.00
2023-07-16T03:14:52.855Z,0.00
2023-07-16T03:15:52.832Z,0.00
2023-07-16T03:16:52.858Z,0.00
2023-07-16T03:17:52.837Z,0.00
2023-07-16T03:18:52.798Z,0.00
2023-07-16T03:19:52.804Z,0.00
2023-07-16T03:20:52.759Z,0.00
2023-07-16T03:21:52.768Z,0.00
2023-07-16T03:22:52.774Z,0.00
2023-07-16T03:23:52.748Z,0.00
2023-07-16T03:24:52.733Z,0.00
2023-07-16T03:25:52.709Z,0.00
2023-07-16T03:26:58.511Z,0.00
2023-07-16T03:27:53.680Z,0.00
2023-07-16T03:28:52.646Z,0.00
2023-07-16T03:29:52.646Z,0.00
2023-07-16T03:30:52.687Z,0.00
2023-07-16T03:31:52.679Z,0.00
2023-07-16T03:32:53.776Z,0.00
2023-07-16T03:33:52.617Z,0.00
2023-07-16T03:34:52.405Z,0.00
2023-07-16T03:35:52.579Z,0.00
2023-07-16T03:36:52.563Z,0.00
2023-07-16T03:37:52.542Z,5.62
2023-07-16T03:38:52.531Z,5.62
2023-07-16T03:39:52.542Z,5.62
2023-07-16T03:40:52.486Z,5.62
2023-07-16T03:41:52.497Z,5.62
2023-07-16T03:42:52.462Z,5.62
2023-07-16T03:43:52.482Z,5.62
2023-07-16T03:44:52.441Z,5.62
2023-07-16T03:45:52.445Z,11.25
2023-07-16T03:46:52.409Z,11.25
2023-07-16T03:47:52.498Z,5.62
2023-07-16T03:48:52.396Z,11.25
2023-07-16T03:49:52.369Z,11.25
2023-07-16T03:50:52.392Z,11.25
2023-07-16T03:51:52.338Z,11.25
2023-07-16T03:52:52.320Z,11.25
2023-07-16T03:53:52.334Z,11.25
2023-07-16T03:54:52.298Z,16.88
2023-07-16T03:55:52.302Z,16.88
2023-07-16T03:56:52.278Z,11.25
2023-07-16T03:57:52.261Z,16.88
2023-07-16T03:58:52.263Z,16.88
2023-07-16T03:59:52.243Z,22.50
2023-07-16T04:00:52.222Z,28.12
2023-07-16T04:01:52.229Z,28.12
2023-07-16T04:02:52.260Z,28.12
2023-07-16T04:03:52.236Z,28.12
2023-07-16T04:04:52.180Z,28.12
2023-07-16T04:05:52.167Z,28.12
2023-07-16T04:06:52.137Z,28.12
2023-07-16T04:07:52.134Z,33.75
2023-07-16T04:08:52.105Z,33.75
2023-07-16T04:09:52.109Z,33.75
2023-07-16T04:10:53.004Z,33.75
2023-07-16T04:11:52.068Z,39.38
2023-07-16T04:12:52.090Z,39.38
2023-07-16T04:13:52.045Z,39.38
2023-07-16T04:14:52.036Z,45.00
2023-07-16T04:15:52.019Z,45.00
2023-07-16T04:16:52.040Z,50.62
2023-07-16T04:17:52.085Z,45.00
2023-07-16T04:18:51.990Z,56.25
2023-07-16T04:19:51.978Z,56.25
2023-07-16T04:20:51.939Z,56.25
2023-07-16T04:21:51.944Z,61.88
2023-07-16T04:22:51.962Z,56.25
2023-07-16T04:23:51.918Z,61.88
2023-07-16T04:24:51.891Z,73.12
2023-07-16T04:25:51.877Z,90.00
2023-07-16T04:26:51.859Z,90.00
2023-07-16T04:27:51.847Z,84.38
2023-07-16T04:28:51.839Z,73.12
2023-07-16T04:29:51.826Z,78.75
2023-07-16T04:30:51.867Z,95.62
2023-07-16T04:31:51.800Z,90.00
2023-07-16T04:32:51.889Z,95.62
2023-07-16T04:33:51.776Z,90.00
2023-07-16T04:34:51.773Z,90.00
2023-07-16T04:35:51.759Z,101.25
2023-07-16T04:36:51.721Z,90.00
2023-07-16T04:37:51.761Z,101.25
2023-07-16T04:38:54.144Z,106.88
2023-07-16T04:39:51.702Z,90.00
2023-07-16T04:40:51.661Z,112.50
2023-07-16T04:41:51.654Z,106.88
2023-07-16T04:42:51.650Z,101.25
2023-07-16T04:43:51.657Z,112.50
2023-07-16T04:44:51.612Z,101.25
2023-07-16T04:45:51.606Z,101.25
2023-07-16T04:46:51.619Z,123.75
2023-07-16T04:47:51.706Z,101.25
2023-07-16T04:48:51.561Z,84.38
2023-07-16T04:49:51.546Z,118.12
2023-07-16T04:50:51.525Z,112.50
2023-07-16T04:51:51.529Z,101.25
2023-07-16T04:52:51.533Z,123.75
2023-07-16T04:53:51.496Z,135.00
2023-07-16T04:54:51.491Z,151.88
2023-07-16T04:55:51.482Z,191.25
2023-07-16T04:56:51.506Z,157.50
2023-07-16T04:57:51.444Z,129.38
2023-07-16T04:58:51.426Z,140.62
2023-07-16T04:59:51.424Z,146.25
2023-07-16T05:00:51.397Z,185.62
2023-07-16T05:01:51.470Z,196.88
2023-07-16T05:02:51.416Z,168.75
2023-07-16T05:03:51.421Z,146.25
2023-07-16T05:04:51.348Z,163.12
2023-07-16T05:05:51.319Z,202.50
2023-07-16T05:06:51.325Z,208.12
2023-07-16T05:07:51.289Z,202.50
2023-07-16T05:08:51.287Z,196.88
2023-07-16T05:09:51.271Z,225.00
2023-07-16T05:10:51.264Z,191.25
2023-07-16T05:11:51.253Z,213.75
2023-07-16T05:12:51.228Z,208.12
2023-07-16T05:13:51.205Z,196.88
2023-07-16T05:14:51.186Z,202.50
2023-07-16T05:15:51.207Z,253.12
2023-07-16T05:16:51.214Z,376.88
2023-07-16T05:17:51.245Z,416.25
2023-07-16T05:18:51.145Z,270.00
2023-07-16T05:19:51.143Z,230.62
2023-07-16T05:20:51.112Z,185.62
2023-07-16T05:21:51.095Z,264.38
2023-07-16T05:22:51.130Z,236.25
2023-07-16T05:23:51.081Z,253.12
2023-07-16T05:24:51.060Z,315.00
2023-07-16T05:25:51.181Z,393.75
2023-07-16T05:26:51.023Z,219.38
2023-07-16T05:27:51.019Z,270.00
2023-07-16T05:28:50.998Z,247.50
2023-07-16T05:29:51.010Z,292.50
2023-07-16T05:30:50.991Z,253.12
2023-07-16T05:31:51.011Z,247.50
2023-07-16T05:32:50.998Z,213.75
2023-07-16T05:33:50.926Z,371.25
2023-07-16T05:34:50.923Z,376.88
2023-07-16T05:35:50.906Z,270.00
2023-07-16T05:36:50.880Z,405.00
2023-07-16T05:37:50.884Z,405.00
2023-07-16T05:38:50.862Z,298.12
2023-07-16T05:39:50.872Z,399.38
2023-07-16T05:40:50.821Z,421.88
2023-07-16T05:41:50.855Z,433.12
2023-07-16T05:42:50.799Z,281.25
2023-07-16T05:43:50.812Z,405.00
2023-07-16T05:44:49.122Z,450.00
2023-07-16T05:45:50.798Z,270.00
2023-07-16T05:46:50.777Z,286.88
2023-07-16T05:47:50.808Z,292.50
2023-07-16T05:48:50.761Z,292.50
2023-07-16T05:49:50.239Z,292.50
2023-07-16T05:50:50.691Z,253.12
2023-07-16T05:51:50.682Z,258.75
2023-07-16T05:52:50.684Z,264.38
2023-07-16T05:53:50.661Z,258.75
2023-07-16T05:54:50.649Z,292.50
2023-07-16T05:55:50.136Z,309.38
2023-07-16T05:56:50.603Z,264.38
2023-07-16T05:57:50.619Z,258.75
2023-07-16T05:58:50.603Z,258.75
2023-07-16T05:59:50.584Z,264.38
2023-07-16T06:00:50.608Z,309.38
2023-07-16T06:01:50.577Z,320.62
2023-07-16T06:02:50.556Z,309.38
2023-07-16T06:03:50.617Z,303.75
2023-07-16T06:04:50.523Z,275.62
2023-07-16T06:05:50.498Z,275.62
2023-07-16T06:06:52.895Z,303.75
2023-07-16T06:07:50.488Z,292.50
2023-07-16T06:08:50.486Z,286.88
2023-07-16T06:09:50.425Z,286.88
2023-07-16T06:10:50.402Z,286.88
2023-07-16T06:11:50.392Z,292.50
2023-07-16T06:12:50.387Z,320.62
2023-07-16T06:13:50.386Z,320.62
2023-07-16T06:14:50.347Z,320.62
2023-07-16T06:15:50.376Z,303.75
2023-07-16T06:16:50.445Z,326.25
2023-07-16T06:17:50.374Z,545.62
2023-07-16T06:18:50.312Z,793.12
2023-07-16T06:19:50.285Z,978.75
2023-07-16T06:20:50.283Z,967.50
2023-07-16T06:21:50.270Z,956.25
2023-07-16T06:22:50.327Z,1035.00
2023-07-16T06:23:50.302Z,1051.88
2023-07-16T06:24:50.228Z,1018.12
2023-07-16T06:25:50.244Z,1018.12
2023-07-16T06:26:50.187Z,1040.62
2023-07-16T06:27:50.193Z,1035.00
2023-07-16T06:28:50.162Z,928.12
2023-07-16T06:29:50.150Z,855.00
2023-07-16T06:30:50.125Z,838.12
2023-07-16T06:31:50.181Z,888.75
2023-07-16T06:32:50.141Z,961.88
2023-07-16T06:33:50.098Z,1074.38
2023-07-16T06:34:50.092Z,551.25
2023-07-16T06:35:50.066Z,1305.00
2023-07-16T06:36:50.044Z,534.38
2023-07-16T06:37:50.044Z,489.38
2023-07-16T06:38:50.041Z,736.88
2023-07-16T06:39:50.027Z,573.75
2023-07-16T06:40:49.994Z,1333.12
2023-07-16T06:41:49.992Z,736.88
2023-07-16T06:42:49.556Z,450.00
2023-07-16T06:43:49.965Z,562.50
2023-07-16T06:44:49.940Z,1023.75
2023-07-16T06:45:49.983Z,495.00
2023-07-16T06:46:49.985Z,388.12
2023-07-16T06:47:49.968Z,489.38
2023-07-16T06:48:49.914Z,911.25
2023-07-16T06:49:49.890Z,590.62
2023-07-16T06:50:49.893Z,1321.88
2023-07-16T06:51:49.840Z,691.88
2023-07-16T06:52:49.825Z,506.25
2023-07-16T06:53:49.904Z,421.88
2023-07-16T06:54:49.806Z,450.00
2023-07-16T06:55:48.522Z,1108.12
2023-07-16T06:56:50.001Z,1046.25
2023-07-16T06:57:49.825Z,770.62
2023-07-16T06:58:49.761Z,624.38
2023-07-16T06:59:49.746Z,1316.25
2023-07-16T07:00:50.270Z,2874.38
2023-07-16T07:01:49.703Z,652.50
2023-07-16T07:02:49.705Z,1321.88
2023-07-16T07:03:49.822Z,967.50
2023-07-16T07:04:49.675Z,641.25
2023-07-16T07:05:49.730Z,2874.38
2023-07-16T07:06:49.647Z,742.50
2023-07-16T07:07:49.678Z,1091.25
2023-07-16T07:08:49.616Z,1395.00
2023-07-16T07:09:49.678Z,703.12
2023-07-16T07:10:49.678Z,826.88
2023-07-16T07:11:49.596Z,1321.88
2023-07-16T07:12:49.594Z,686.25
2023-07-16T07:13:49.575Z,2874.38
2023-07-16T07:14:49.579Z,2874.38
2023-07-16T07:15:49.590Z,1378.12
2023-07-16T07:16:54.560Z,2874.38
2023-07-16T07:17:50.703Z,2874.38
2023-07-16T07:18:51.630Z,753.75
2023-07-16T07:19:49.468Z,945.00
2023-07-16T07:20:49.460Z,736.88
2023-07-16T07:21:49.458Z,725.62
2023-07-16T07:22:49.460Z,759.38
2023-07-16T07:23:49.416Z,720.00
2023-07-16T07:24:49.395Z,905.62
2023-07-16T07:25:49.386Z,1248.75
2023-07-16T07:26:49.383Z,2874.38
2023-07-16T07:27:49.953Z,601.88
2023-07-16T07:28:49.351Z,731.25
2023-07-16T07:29:49.311Z,2874.38
2023-07-16T07:30:49.957Z,1051.88
2023-07-16T07:31:49.381Z,2874.38
2023-07-16T07:32:49.339Z,877.50
2023-07-16T07:33:49.282Z,2874.38
2023-07-16T07:34:49.269Z,2874.38
2023-07-16T07:35:49.307Z,590.62
2023-07-16T07:36:49.219Z,793.12
2023-07-16T07:37:49.211Z,826.88
2023-07-16T07:38:49.211Z,2874.38
2023-07-16T07:39:49.182Z,2874.38
2023-07-16T07:40:49.164Z,2874.38
2023-07-16T07:41:49.156Z,1096.88
2023-07-16T07:42:49.143Z,2874.38
2023-07-16T07:43:49.138Z,2874.38
2023-07-16T07:44:49.115Z,2874.38
2023-07-16T07:45:49.099Z,2874.38
2023-07-16T07:46:49.117Z,2874.38
2023-07-16T07:47:49.136Z,2874.38
2023-07-16T07:48:49.081Z,2874.38
2023-07-16T07:49:49.050Z,2874.38
2023-07-16T07:50:52.046Z,860.62
2023-07-16T07:51:49.017Z,871.88
2023-07-16T07:52:49.034Z,2874.38
2023-07-16T07:53:49.009Z,2874.38
2023-07-16T07:54:48.976Z,511.88
2023-07-16T07:55:48.972Z,421.88
2023-07-16T07:56:48.966Z,433.12
2023-07-16T07:57:48.941Z,2874.38
2023-07-16T07:58:48.955Z,2874.38
2023-07-16T07:59:48.893Z,2874.38
2023-07-16T08:00:48.883Z,2874.38
2023-07-16T08:01:48.888Z,652.50
2023-07-16T08:02:48.939Z,798.75
2023-07-16T08:03:49.062Z,2874.38
2023-07-16T08:04:49.119Z,2874.38
2023-07-16T08:05:48.834Z,804.38
2023-07-16T08:06:48.898Z,821.25
2023-07-16T08:07:48.814Z,1350.00
2023-07-16T08:08:48.785Z,2874.38
2023-07-16T08:09:48.771Z,2874.38
2023-07-16T08:10:48.773Z,2874.38
2023-07-16T08:11:48.758Z,697.50
2023-07-16T08:12:48.736Z,630.00
2023-07-16T08:13:48.712Z,1406.25
2023-07-16T08:14:48.713Z,2874.38
2023-07-16T08:15:48.696Z,2874.38
2023-07-16T08:16:48.740Z,2874.38
2023-07-16T08:17:48.833Z,596.25
2023-07-16T08:18:48.676Z,1372.50
2023-07-16T08:19:48.636Z,956.25
2023-07-16T08:20:48.632Z,894.38
2023-07-16T08:21:48.630Z,939.38
2023-07-16T08:22:48.688Z,1001.25
2023-07-16T08:23:48.568Z,2874.38
2023-07-16T08:24:48.568Z,1102.50
2023-07-16T08:25:48.565Z,911.25
2023-07-16T08:26:48.543Z,2874.38
2023-07-16T08:27:48.515Z,2874.38
2023-07-16T08:28:48.526Z,2874.38
2023-07-16T08:29:48.507Z,2874.38
2023-07-16T08:30:48.557Z,2874.38
2023-07-16T08:31:48.462Z,2874.38
2023-07-16T08:32:48.513Z,2874.38
2023-07-16T08:33:48.424Z,2874.38
2023-07-16T08:34:48.421Z,562.50
2023-07-16T08:35:48.409Z,590.62
2023-07-16T08:36:48.404Z,1220.62
2023-07-16T08:37:48.377Z,916.88
2023-07-16T08:38:48.366Z,2874.38
2023-07-16T08:39:48.348Z,2874.38
2023-07-16T08:40:48.333Z,2874.38
2023-07-16T08:41:48.331Z,1209.38
2023-07-16T08:42:48.325Z,826.88
2023-07-16T08:43:48.288Z,1023.75
2023-07-16T08:44:48.312Z,736.88
2023-07-16T08:45:48.273Z,613.12
2023-07-16T08:46:48.310Z,2874.38
2023-07-16T08:47:48.259Z,652.50
2023-07-16T08:48:48.242Z,1035.00
2023-07-16T08:49:48.224Z,1051.88
2023-07-16T08:50:48.228Z,2874.38
2023-07-16T08:51:48.198Z,2874.38
2023-07-16T08:52:48.210Z,2874.38
2023-07-16T08:53:48.189Z,2874.38
2023-07-16T08:54:48.169Z,2874.38
2023-07-16T08:55:50.613Z,2874.38
2023-07-16T08:56:48.128Z,810.00
2023-07-16T08:57:48.097Z,2874.38
2023-07-16T08:58:48.122Z,2874.38
2023-07-16T08:59:48.093Z,4314.38
2023-07-16T09:00:48.078Z,4314.38
2023-07-16T09:01:48.142Z,2874.38
2023-07-16T09:02:48.095Z,4314.38
2023-07-16T09:03:48.069Z,748.12
2023-07-16T09:04:48.024Z,1001.25
2023-07-16T09:05:48.392Z,675.00
2023-07-16T09:06:48.029Z,1271.25
2023-07-16T09:07:48.012Z,2874.38
2023-07-16T09:08:48.020Z,2874.38
2023-07-16T09:09:47.955Z,2874.38
2023-07-16T09:10:47.986Z,2874.38
2023-07-16T09:11:47.941Z,2874.38
2023-07-16T09:12:47.933Z,2874.38
2023-07-16T09:13:47.938Z,2874.38
2023-07-16T09:14:47.940Z,2874.38
2023-07-16T09:15:51.555Z,2874.38
2023-07-16T09:16:48.131Z,2874.38
2023-07-16T09:17:47.996Z,2874.38
2023-07-16T09:18:47.888Z,2874.38
2023-07-16T09:19:47.820Z,2874.38
2023-07-16T09:20:47.814Z,2874.38
2023-07-16T09:21:47.823Z,2874.38
2023-07-16T09:22:47.913Z,1136.25
2023-07-16T09:23:47.772Z,2874.38
2023-07-16T09:24:47.792Z,2874.38
2023-07-16T09:25:47.738Z,2874.38
2023-07-16T09:26:47.441Z,2874.38
2023-07-16T09:27:48.256Z,2874.38
2023-07-16T09:28:47.726Z,2874.38
2023-07-16T09:29:48.549Z,2874.38
2023-07-16T09:30:47.727Z,2874.38
2023-07-16T09:31:45.852Z,871.88
2023-07-16T09:32:47.615Z,1400.62
2023-07-16T09:33:47.648Z,2874.38
2023-07-16T09:34:47.657Z,4314.38
2023-07-16T09:35:47.645Z,658.12
2023-07-16T09:36:47.639Z,2874.38
2023-07-16T09:37:47.594Z,2874.38
2023-07-16T09:38:47.609Z,2874.38
2023-07-16T09:39:47.575Z,663.75
2023-07-16T09:40:47.602Z,2874.38
2023-07-16T09:41:49.573Z,2874.38
2023-07-16T09:42:47.581Z,2874.38
2023-07-16T09:43:47.532Z,2874.38
2023-07-16T09:44:47.847Z,2874.38
2023-07-16T09:45:47.559Z,2874.38
2023-07-16T09:46:47.884Z,4314.38
2023-07-16T09:47:47.543Z,4314.38
2023-07-16T09:48:47.471Z,4314.38
2023-07-16T09:49:47.470Z,4314.38
2023-07-16T09:50:47.440Z,2874.38
2023-07-16T09:51:47.698Z,2874.38
2023-07-16T09:52:47.440Z,4314.38
2023-07-16T09:53:47.396Z,4314.38
2023-07-16T09:54:47.384Z,4314.38
2023-07-16T09:55:47.371Z,2874.38
2023-07-16T09:56:47.349Z,2874.38
2023-07-16T09:57:47.338Z,4314.38
2023-07-16T09:58:47.309Z,4314.38
2023-07-16T09:59:47.609Z,4314.38
2023-07-16T10:00:47.711Z,4314.38
2023-07-16T10:01:47.366Z,4314.38
2023-07-16T10:02:47.430Z,4314.38
2023-07-16T10:03:48.891Z,4314.38
2023-07-16T10:04:47.267Z,4314.38
2023-07-16T10:05:47.242Z,4314.38
2023-07-16T10:06:47.217Z,4314.38
2023-07-16T10:07:45.320Z,4314.38
2023-07-16T10:08:47.175Z,4314.38
2023-07-16T10:09:47.196Z,4314.38
2023-07-16T10:10:47.212Z,2874.38
2023-07-16T10:11:47.149Z,2874.38
2023-07-16T10:12:47.204Z,2874.38
2023-07-16T10:13:47.156Z,2874.38
2023-07-16T10:14:47.165Z,2874.38
2023-07-16T10:15:47.135Z,4314.38
2023-07-16T10:16:47.106Z,4314.38
2023-07-16T10:17:47.097Z,4314.38
2023-07-16T10:18:47.079Z,4314.38
2023-07-16T10:19:47.072Z,4314.38
2023-07-16T10:20:47.074Z,4314.38
2023-07-16T10:21:47.017Z,4314.38
2023-07-16T10:22:47.113Z,922.50
2023-07-16T10:23:45.631Z,1333.12
2023-07-16T10:24:47.290Z,4314.38
2023-07-16T10:25:46.986Z,4314.38
2023-07-16T10:26:46.965Z,2874.38
2023-07-16T10:27:46.966Z,1299.38
2023-07-16T10:28:47.002Z,2874.38
2023-07-16T10:29:46.916Z,4314.38
2023-07-16T10:30:46.954Z,1074.38
2023-07-16T10:31:46.957Z,2874.38
2023-07-16T10:32:47.010Z,1091.25
2023-07-16T10:33:46.697Z,956.25
2023-07-16T10:34:46.897Z,978.75
2023-07-16T10:35:46.857Z,2874.38
2023-07-16T10:36:46.861Z,4314.38
2023-07-16T10:37:46.833Z,961.88
2023-07-16T10:38:46.821Z,1051.88
2023-07-16T10:39:46.834Z,4314.38
2023-07-16T10:40:46.775Z,4314.38
2023-07-16T10:41:46.785Z,4314.38
2023-07-16T10:42:46.788Z,4314.38
2023-07-16T10:43:46.741Z,4314.38
2023-07-16T10:44:46.772Z,4314.38
2023-07-16T10:45:46.756Z,4314.38
2023-07-16T10:46:46.746Z,4314.38
2023-07-16T10:47:46.719Z,4314.38
2023-07-16T10:48:46.678Z,4314.38
2023-07-16T10:49:46.676Z,4314.38
2023-07-16T10:50:46.664Z,4314.38
2023-07-16T10:51:46.643Z,4314.38
2023-07-16T10:52:46.645Z,2874.38
2023-07-16T10:53:46.624Z,4314.38
2023-07-16T10:54:46.613Z,4314.38
2023-07-16T10:55:46.603Z,4314.38
2023-07-16T10:56:46.628Z,4314.38
2023-07-16T10:57:46.585Z,4314.38
2023-07-16T10:58:46.569Z,4314.38
2023-07-16T10:59:46.542Z,4314.38
2023-07-16T11:00:46.618Z,4314.38
2023-07-16T11:01:46.632Z,4314.38
2023-07-16T11:02:46.557Z,995.62
2023-07-16T11:03:46.619Z,2874.38
2023-07-16T11:04:46.511Z,826.88
2023-07-16T11:05:46.478Z,871.88
2023-07-16T11:06:46.496Z,826.88
2023-07-16T11:07:50.093Z,736.88
2023-07-16T11:08:47.459Z,669.38
2023-07-16T11:09:46.435Z,613.12
2023-07-16T11:10:46.411Z,596.25
2023-07-16T11:11:46.176Z,596.25
2023-07-16T11:12:46.379Z,652.50
2023-07-16T11:13:48.672Z,984.38
2023-07-16T11:14:46.367Z,871.88
2023-07-16T11:15:46.398Z,742.50
2023-07-16T11:16:46.337Z,686.25
2023-07-16T11:17:46.327Z,686.25
2023-07-16T11:18:46.299Z,708.75
2023-07-16T11:19:47.256Z,2874.38
2023-07-16T11:20:46.281Z,1158.75
2023-07-16T11:21:46.262Z,4314.38
2023-07-16T11:22:46.331Z,905.62
2023-07-16T11:23:46.230Z,1029.38
2023-07-16T11:24:46.216Z,568.12
2023-07-16T11:25:46.199Z,506.25
2023-07-16T11:26:46.186Z,495.00
2023-07-16T11:27:46.179Z,433.12
2023-07-16T11:28:46.164Z,438.75
2023-07-16T11:29:46.154Z,506.25
2023-07-16T11:30:46.273Z,1153.12
2023-07-16T11:31:46.136Z,753.75
2023-07-16T11:32:46.241Z,703.12
2023-07-16T11:33:45.156Z,680.62
2023-07-16T11:34:46.097Z,4314.38
2023-07-16T11:35:46.068Z,4314.38
2023-07-16T11:36:46.047Z,4314.38
2023-07-16T11:37:46.041Z,4314.38
2023-07-16T11:38:46.032Z,4314.38
2023-07-16T11:39:46.084Z,4314.38
2023-07-16T11:40:46.008Z,4314.38
2023-07-16T11:41:45.995Z,4314.38
2023-07-16T11:42:45.974Z,4314.38
2023-07-16T11:43:45.978Z,4314.38
2023-07-16T11:44:45.943Z,2874.38
2023-07-16T11:45:45.960Z,2874.38
2023-07-16T11:46:45.937Z,4314.38
2023-07-16T11:47:45.990Z,4314.38
2023-07-16T11:48:45.921Z,4314.38
2023-07-16T11:49:45.889Z,4314.38
2023-07-16T11:50:45.888Z,4314.38
2023-07-16T11:51:45.219Z,4314.38
2023-07-16T11:52:45.830Z,4314.38
2023-07-16T11:53:45.865Z,4314.38
2023-07-16T11:54:45.817Z,4314.38
2023-07-16T11:55:45.822Z,2874.38
2023-07-16T11:56:45.789Z,1338.75
2023-07-16T11:57:45.775Z,4314.38
2023-07-16T11:58:45.767Z,4314.38
2023-07-16T11:59:45.741Z,2874.38
2023-07-16T12:00:45.776Z,4314.38
2023-07-16T12:01:45.737Z,1147.50
2023-07-16T12:02:45.824Z,4314.38
2023-07-16T12:03:45.784Z,4314.38
2023-07-16T12:04:45.669Z,4314.38
2023-07-16T12:05:53.410Z,4314.38
2023-07-16T12:06:46.660Z,4314.38
2023-07-16T12:07:45.637Z,4314.38
2023-07-16T12:08:45.634Z,4314.38
2023-07-16T12:09:45.598Z,4314.38
2023-07-16T12:10:45.603Z,4314.38
2023-07-16T12:11:45.584Z,4314.38
2023-07-16T12:12:45.582Z,4314.38
2023-07-16T12:13:45.592Z,4314.38
2023-07-16T12:14:45.560Z,4314.38
2023-07-16T12:15:45.561Z,4314.38
2023-07-16T12:16:45.599Z,4314.38
2023-07-16T12:17:45.549Z,4314.38
2023-07-16T12:18:45.506Z,4314.38
2023-07-16T12:19:45.765Z,4314.38
2023-07-16T12:20:45.466Z,4314.38
2023-07-16T12:21:45.476Z,4314.38
2023-07-16T12:22:45.506Z,4314.38
2023-07-16T12:23:45.433Z,1046.25
2023-07-16T12:24:45.419Z,4314.38
2023-07-16T12:25:45.417Z,4314.38
2023-07-16T12:26:45.400Z,4314.38
2023-07-16T12:27:45.444Z,4314.38
2023-07-16T12:28:45.361Z,4314.38
2023-07-16T12:29:45.360Z,4314.38
2023-07-16T12:30:45.370Z,4314.38
2023-07-16T12:31:45.323Z,4314.38
2023-07-16T12:32:43.923Z,2874.38
2023-07-16T12:33:45.297Z,4314.38
2023-07-16T12:34:45.286Z,4314.38
2023-07-16T12:35:45.287Z,4314.38